sensor_id;sensor_type;location;lat;lon;timestamp;pressure;altitude;pressure_sealevel;temperature;humidity
68141;BME280;54941;52.220;104.306;2023-02-04T00:01:49;96720.88;;;-22.16;72.95
68141;BME280;54941;52.220;104.306;2023-02-04T00:04:15;96716.78;;;-22.00;73.14
68141;BME280;54941;52.220;104.306;2023-02-04T00:06:42;96724.94;;;-22.10;72.79
68141;BME280;54941;52.220;104.306;2023-02-04T00:09:08;96731.47;;;-22.20;72.10
68141;BME280;54941;52.220;104.306;2023-02-04T00:11:34;96729.03;;;-22.44;72.26
68141;BME280;54941;52.220;104.306;2023-02-04T00:14:02;96741.22;;;-22.46;72.21
68141;BME280;54941;52.220;104.306;2023-02-04T00:16:29;96746.13;;;-22.49;72.21
68141;BME280;54941;52.220;104.306;2023-02-04T00:18:55;96750.19;;;-22.48;71.83
68141;BME280;54941;52.220;104.306;2023-02-04T00:21:21;96746.09;;;-22.59;72.16
68141;BME280;54941;52.220;104.306;2023-02-04T00:23:48;96759.16;;;-22.44;72.25
68141;BME280;54941;52.220;104.306;2023-02-04T00:26:14;96765.66;;;-22.33;72.39
68141;BME280;54941;52.220;104.306;2023-02-04T00:28:40;96767.28;;;-22.43;72.39
68141;BME280;54941;52.220;104.306;2023-02-04T00:31:08;96759.97;;;-22.37;72.15
68141;BME280;54941;52.220;104.306;2023-02-04T00:33:35;96768.91;;;-22.74;72.84
68141;BME280;54941;52.220;104.306;2023-02-04T00:36:01;96759.13;;;-22.77;72.59
68141;BME280;54941;52.220;104.306;2023-02-04T00:38:27;96764.81;;;-22.64;72.46
68141;BME280;54941;52.220;104.306;2023-02-04T00:40:54;96767.28;;;-22.48;72.77
68141;BME280;54941;52.220;104.306;2023-02-04T00:43:20;96764.84;;;-22.37;72.60
68141;BME280;54941;52.220;104.306;2023-02-04T00:45:46;96777.84;;;-22.27;72.08
68141;BME280;54941;52.220;104.306;2023-02-04T00:48:14;96777.03;;;-22.05;72.54
68141;BME280;54941;52.220;104.306;2023-02-04T00:50:40;96789.25;;;-22.14;72.82
68141;BME280;54941;52.220;104.306;2023-02-04T00:53:07;96784.38;;;-22.04;72.14
68141;BME280;54941;52.220;104.306;2023-02-04T00:55:33;96788.44;;;-22.10;71.99
68141;BME280;54941;52.220;104.306;2023-02-04T00:57:59;96785.19;;;-22.40;70.92
68141;BME280;54941;52.220;104.306;2023-02-04T01:00:26;96795.75;;;-22.51;70.47
68141;BME280;54941;52.220;104.306;2023-02-04T01:02:52;96789.22;;;-22.49;71.14
68141;BME280;54941;52.220;104.306;2023-02-04T01:05:20;96785.13;;;-22.87;71.04
68141;BME280;54941;52.220;104.306;2023-02-04T01:07:46;96777.00;;;-22.87;72.15
68141;BME280;54941;52.220;104.306;2023-02-04T01:10:13;96780.28;;;-22.62;73.11
68141;BME280;54941;52.220;104.306;2023-02-04T01:12:39;96769.72;;;-22.16;73.13
68141;BME280;54941;52.220;104.306;2023-02-04T01:15:06;96765.66;;;-21.96;72.69
68141;BME280;54941;52.220;104.306;2023-02-04T01:17:32;96762.38;;;-21.93;72.65
68141;BME280;54941;52.220;104.306;2023-02-04T01:19:59;96768.91;;;-21.97;72.60
68141;BME280;54941;52.220;104.306;2023-02-04T01:22:27;96770.53;;;-22.15;72.54
68141;BME280;54941;52.220;104.306;2023-02-04T01:24:53;96770.50;;;-21.94;72.60
68141;BME280;54941;52.220;104.306;2023-02-04T01:27:19;96778.59;;;-21.75;72.67
68141;BME280;54941;52.220;104.306;2023-02-04T01:29:46;96773.66;;;-21.44;72.58
68141;BME280;54941;52.220;104.306;2023-02-04T01:32:12;96779.34;;;-21.46;72.58
68141;BME280;54941;52.220;104.306;2023-02-04T01:34:38;96787.50;;;-21.49;72.09
68141;BME280;54941;52.220;104.306;2023-02-04T01:37:05;96781.63;;;-21.02;72.37
68141;BME280;54941;52.220;104.306;2023-02-04T01:39:32;96783.38;;;-21.30;71.38
68141;BME280;54941;52.220;104.306;2023-02-04T01:41:59;96787.53;;;-21.68;71.17
68141;BME280;54941;52.220;104.306;2023-02-04T01:44:26;96787.44;;;-21.27;71.13
68141;BME280;54941;52.220;104.306;2023-02-04T01:46:52;96792.41;;;-21.47;71.60
68141;BME280;54941;52.220;104.306;2023-02-04T01:49:19;96789.06;;;-21.23;71.60
68141;BME280;54941;52.220;104.306;2023-02-04T01:51:46;96784.84;;;-20.91;71.47
68141;BME280;54941;52.220;104.306;2023-02-04T01:54:13;96802.09;;;-21.14;70.61
68141;BME280;54941;52.220;104.306;2023-02-04T01:56:44;96796.47;;;-21.46;70.68
68141;BME280;54941;52.220;104.306;2023-02-04T01:59:10;96785.03;;;-21.33;70.23
68141;BME280;54941;52.220;104.306;2023-02-04T02:01:39;96784.19;;;-21.25;70.46
68141;BME280;54941;52.220;104.306;2023-02-04T02:04:06;96789.09;;;-21.34;70.57
68141;BME280;54941;52.220;104.306;2023-02-04T02:06:32;96794.69;;;-21.05;70.18
68141;BME280;54941;52.220;104.306;2023-02-04T02:09:00;96787.28;;;-20.94;70.89
68141;BME280;54941;52.220;104.306;2023-02-04T02:11:27;96785.34;;;-20.39;71.00
68141;BME280;54941;52.220;104.306;2023-02-04T02:13:55;96773.22;;;-19.57;70.49
68141;BME280;54941;52.220;104.306;2023-02-04T02:16:41;96781.53;;;-18.98;69.33
68141;BME280;54941;52.220;104.306;2023-02-04T02:19:11;96774.50;;;-18.60;68.00
68141;BME280;54941;52.220;104.306;2023-02-04T02:21:46;96774.88;;;-18.32;66.74
68141;BME280;54941;52.220;104.306;2023-02-04T02:24:28;96764.59;;;-18.02;65.22
68141;BME280;54941;52.220;104.306;2023-02-04T02:26:56;96770.22;;;-17.95;64.13
68141;BME280;54941;52.220;104.306;2023-02-04T02:29:23;96765.63;;;-17.63;63.16
68141;BME280;54941;52.220;104.306;2023-02-04T02:31:50;96768.78;;;-17.58;62.96
68141;BME280;54941;52.220;104.306;2023-02-04T02:34:17;96774.97;;;-17.37;62.20
68141;BME280;54941;52.220;104.306;2023-02-04T02:36:43;96768.84;;;-16.75;61.71
68141;BME280;54941;52.220;104.306;2023-02-04T02:39:10;96780.34;;;-16.02;60.58
68141;BME280;54941;52.220;104.306;2023-02-04T02:41:38;96786.13;;;-15.67;57.20
68141;BME280;54941;52.220;104.306;2023-02-04T02:44:05;96783.97;;;-16.53;57.36
68141;BME280;54941;52.220;104.306;2023-02-04T02:46:32;96786.78;;;-16.31;57.57
68141;BME280;54941;52.220;104.306;2023-02-04T02:48:58;96787.56;;;-16.66;57.46
68141;BME280;54941;52.220;104.306;2023-02-04T02:51:25;96788.50;;;-16.72;57.55
68141;BME280;54941;52.220;104.306;2023-02-04T02:53:51;96794.59;;;-16.90;58.59
68141;BME280;54941;52.220;104.306;2023-02-04T02:56:18;96799.31;;;-15.36;55.27
68141;BME280;54941;52.220;104.306;2023-02-04T02:58:46;96791.34;;;-15.47;55.37
68141;BME280;54941;52.220;104.306;2023-02-04T03:01:13;96795.06;;;-15.97;55.99
68141;BME280;54941;52.220;104.306;2023-02-04T03:03:42;96794.81;;;-15.53;56.09
68141;BME280;54941;52.220;104.306;2023-02-04T03:06:12;96796.47;;;-16.61;58.27
68141;BME280;54941;52.220;104.306;2023-02-04T03:08:41;96799.47;;;-16.48;58.04
68141;BME280;54941;52.220;104.306;2023-02-04T03:11:09;96802.22;;;-15.87;57.64
68141;BME280;54941;52.220;104.306;2023-02-04T03:13:35;96803.66;;;-15.13;55.99
68141;BME280;54941;52.220;104.306;2023-02-04T03:16:04;96809.50;;;-14.85;54.71
68141;BME280;54941;52.220;104.306;2023-02-04T03:18:31;96806.69;;;-14.73;54.96
68141;BME280;54941;52.220;104.306;2023-02-04T03:20:58;96806.28;;;-14.02;53.40
68141;BME280;54941;52.220;104.306;2023-02-04T03:23:25;96811.59;;;-14.14;53.88
68141;BME280;54941;52.220;104.306;2023-02-04T03:25:51;96807.59;;;-13.64;52.98
68141;BME280;54941;52.220;104.306;2023-02-04T03:28:18;96814.91;;;-13.61;54.14
68141;BME280;54941;52.220;104.306;2023-02-04T03:30:44;96818.44;;;-13.42;53.26
68141;BME280;54941;52.220;104.306;2023-02-04T03:33:12;96808.56;;;-14.22;54.49
68141;BME280;54941;52.220;104.306;2023-02-04T03:35:38;96810.00;;;-13.63;55.40
68141;BME280;54941;52.220;104.306;2023-02-04T03:38:06;96805.88;;;-14.16;55.35
68141;BME280;54941;52.220;104.306;2023-02-04T03:40:32;96815.34;;;-14.57;57.43
68141;BME280;54941;52.220;104.306;2023-02-04T03:42:59;96812.56;;;-13.15;54.18
68141;BME280;54941;52.220;104.306;2023-02-04T03:45:25;96809.88;;;-12.86;53.59
68141;BME280;54941;52.220;104.306;2023-02-04T03:47:51;96817.75;;;-12.98;54.22
68141;BME280;54941;52.220;104.306;2023-02-04T03:50:19;96809.00;;;-13.08;53.61
68141;BME280;54941;52.220;104.306;2023-02-04T03:52:46;96812.03;;;-13.00;54.60
68141;BME280;54941;52.220;104.306;2023-02-04T03:55:12;96814.00;;;-12.85;54.57
68141;BME280;54941;52.220;104.306;2023-02-04T03:57:38;96810.44;;;-12.54;54.19
68141;BME280;54941;52.220;104.306;2023-02-04T04:00:05;96807.13;;;-11.87;53.63
68141;BME280;54941;52.220;104.306;2023-02-04T04:02:32;96806.03;;;-11.79;52.54
68141;BME280;54941;52.220;104.306;2023-02-04T04:04:58;96806.31;;;-12.09;53.08
68141;BME280;54941;52.220;104.306;2023-02-04T04:07:26;96805.91;;;-12.66;55.01
68141;BME280;54941;52.220;104.306;2023-02-04T04:09:53;96798.63;;;-12.48;55.44
68141;BME280;54941;52.220;104.306;2023-02-04T04:12:19;96802.91;;;-11.64;54.18
68141;BME280;54941;52.220;104.306;2023-02-04T04:14:46;96795.28;;;-10.99;53.57
68141;BME280;54941;52.220;104.306;2023-02-04T04:17:12;96791.88;;;-11.17;53.76
68141;BME280;54941;52.220;104.306;2023-02-04T04:19:38;96801.94;;;-11.20;54.43
68141;BME280;54941;52.220;104.306;2023-02-04T04:22:05;96789.44;;;-10.98;54.53
68141;BME280;54941;52.220;104.306;2023-02-04T04:24:32;96785.50;;;-10.83;54.29
68141;BME280;54941;52.220;104.306;2023-02-04T04:26:59;96785.09;;;-10.74;55.18
68141;BME280;54941;52.220;104.306;2023-02-04T04:29:25;96779.88;;;-10.68;56.42
68141;BME280;54941;52.220;104.306;2023-02-04T04:31:51;96782.28;;;-10.12;56.87
68141;BME280;54941;52.220;104.306;2023-02-04T04:34:18;96776.59;;;-9.78;56.54
68141;BME280;54941;52.220;104.306;2023-02-04T04:36:45;96771.84;;;-9.83;55.86
68141;BME280;54941;52.220;104.306;2023-02-04T04:39:11;96776.34;;;-9.91;55.67
68141;BME280;54941;52.220;104.306;2023-02-04T04:41:39;96774.84;;;-9.59;55.19
68141;BME280;54941;52.220;104.306;2023-02-04T04:44:05;96772.84;;;-9.87;55.26
68141;BME280;54941;52.220;104.306;2023-02-04T04:46:32;96769.69;;;-10.26;57.38
68141;BME280;54941;52.220;104.306;2023-02-04T04:48:58;96772.50;;;-9.62;56.67
68141;BME280;54941;52.220;104.306;2023-02-04T04:51:25;96766.41;;;-10.10;57.03
68141;BME280;54941;52.220;104.306;2023-02-04T04:53:51;96761.31;;;-9.04;55.41
68141;BME280;54941;52.220;104.306;2023-02-04T04:56:17;96768.03;;;-8.56;53.13
68141;BME280;54941;52.220;104.306;2023-02-04T04:58:45;96762.25;;;-8.41;52.39
68141;BME280;54941;52.220;104.306;2023-02-04T05:01:12;96769.09;;;-8.93;53.42
68141;BME280;54941;52.220;104.306;2023-02-04T05:03:38;96762.38;;;-9.59;53.97
68141;BME280;54941;52.220;104.306;2023-02-04T05:06:05;96759.13;;;-9.78;55.17
68141;BME280;54941;52.220;104.306;2023-02-04T05:08:31;96761.50;;;-9.58;54.63
68141;BME280;54941;52.220;104.306;2023-02-04T05:10:57;96759.66;;;-9.38;55.76
68141;BME280;54941;52.220;104.306;2023-02-04T05:13:24;96767.50;;;-9.45;56.97
68141;BME280;54941;52.220;104.306;2023-02-04T05:15:52;96766.91;;;-8.50;55.67
68141;BME280;54941;52.220;104.306;2023-02-04T05:18:18;96778.34;;;-9.80;57.55
68141;BME280;54941;52.220;104.306;2023-02-04T05:20:44;96774.63;;;-9.55;56.73
68141;BME280;54941;52.220;104.306;2023-02-04T05:23:11;96767.44;;;-8.61;55.40
68141;BME280;54941;52.220;104.306;2023-02-04T05:25:37;96776.03;;;-8.33;54.05
68141;BME280;54941;52.220;104.306;2023-02-04T05:28:04;96770.53;;;-9.21;56.00
68141;BME280;54941;52.220;104.306;2023-02-04T05:30:30;96779.25;;;-9.30;57.52
68141;BME280;54941;52.220;104.306;2023-02-04T05:32:58;96772.13;;;-8.70;56.98
68141;BME280;54941;52.220;104.306;2023-02-04T05:35:24;96770.34;;;-9.01;55.93
68141;BME280;54941;52.220;104.306;2023-02-04T05:37:51;96777.97;;;-9.04;57.06
68141;BME280;54941;52.220;104.306;2023-02-04T05:40:17;96772.88;;;-9.70;58.57
68141;BME280;54941;52.220;104.306;2023-02-04T05:42:44;96769.19;;;-9.80;58.42
68141;BME280;54941;52.220;104.306;2023-02-04T05:45:13;96769.56;;;-10.06;61.20
68141;BME280;54941;52.220;104.306;2023-02-04T05:47:39;96769.41;;;-9.84;60.64
68141;BME280;54941;52.220;104.306;2023-02-04T05:50:08;96767.88;;;-9.53;59.90
68141;BME280;54941;52.220;104.306;2023-02-04T05:52:35;96760.47;;;-9.37;59.17
68141;BME280;54941;52.220;104.306;2023-02-04T05:55:01;96763.19;;;-9.42;58.81
68141;BME280;54941;52.220;104.306;2023-02-04T05:57:29;96762.56;;;-8.95;58.09
68141;BME280;54941;52.220;104.306;2023-02-04T05:59:55;96760.41;;;-8.85;57.27
68141;BME280;54941;52.220;104.306;2023-02-04T06:02:21;96758.72;;;-8.85;57.54
68141;BME280;54941;52.220;104.306;2023-02-04T06:04:48;96751.56;;;-9.08;58.42
68141;BME280;54941;52.220;104.306;2023-02-04T06:07:15;96752.97;;;-9.03;58.45
68141;BME280;54941;52.220;104.306;2023-02-04T06:09:42;96759.22;;;-9.28;59.03
68141;BME280;54941;52.220;104.306;2023-02-04T06:12:08;96751.72;;;-9.46;60.05
68141;BME280;54941;52.220;104.306;2023-02-04T06:14:35;96744.16;;;-9.27;59.26
68141;BME280;54941;52.220;104.306;2023-02-04T06:17:01;96748.44;;;-8.63;57.22
68141;BME280;54941;52.220;104.306;2023-02-04T06:19:27;96750.25;;;-8.98;56.59
68141;BME280;54941;52.220;104.306;2023-02-04T06:21:54;96755.13;;;-9.47;57.88
68141;BME280;54941;52.220;104.306;2023-02-04T06:24:21;96741.84;;;-8.49;56.36
68141;BME280;54941;52.220;104.306;2023-02-04T06:26:48;96752.88;;;-9.01;55.59
68141;BME280;54941;52.220;104.306;2023-02-04T06:29:14;96753.44;;;-8.96;56.53
68141;BME280;54941;52.220;104.306;2023-02-04T06:31:41;96755.63;;;-9.23;56.78
68141;BME280;54941;52.220;104.306;2023-02-04T06:34:07;96746.16;;;-9.16;57.90
68141;BME280;54941;52.220;104.306;2023-02-04T06:36:33;96756.13;;;-9.33;58.23
68141;BME280;54941;52.220;104.306;2023-02-04T06:39:00;96750.69;;;-9.07;57.54
68141;BME280;54941;52.220;104.306;2023-02-04T06:41:27;96750.97;;;-8.96;57.02
68141;BME280;54941;52.220;104.306;2023-02-04T06:43:54;96761.50;;;-9.41;57.35
68141;BME280;54941;52.220;104.306;2023-02-04T06:46:20;96755.47;;;-9.71;59.28
68141;BME280;54941;52.220;104.306;2023-02-04T06:48:46;96767.63;;;-9.82;59.45
68141;BME280;54941;52.220;104.306;2023-02-04T06:51:13;96756.72;;;-9.28;58.71
68141;BME280;54941;52.220;104.306;2023-02-04T06:53:39;96758.56;;;-9.32;59.77
68141;BME280;54941;52.220;104.306;2023-02-04T06:56:06;96761.19;;;-9.18;59.54
68141;BME280;54941;52.220;104.306;2023-02-04T06:58:33;96760.34;;;-9.51;59.79
68141;BME280;54941;52.220;104.306;2023-02-04T07:01:00;96759.88;;;-9.42;59.05
68141;BME280;54941;52.220;104.306;2023-02-04T07:03:26;96760.16;;;-9.14;58.96
68141;BME280;54941;52.220;104.306;2023-02-04T07:05:52;96754.31;;;-9.13;58.62
68141;BME280;54941;52.220;104.306;2023-02-04T07:08:19;96756.63;;;-9.27;58.67
68141;BME280;54941;52.220;104.306;2023-02-04T07:10:45;96753.81;;;-9.37;58.90
68141;BME280;54941;52.220;104.306;2023-02-04T07:13:12;96749.53;;;-9.17;59.41
68141;BME280;54941;52.220;104.306;2023-02-04T07:15:39;96751.44;;;-9.05;58.92
68141;BME280;54941;52.220;104.306;2023-02-04T07:18:06;96748.22;;;-9.24;58.79
68141;BME280;54941;52.220;104.306;2023-02-04T07:20:32;96746.72;;;-8.78;58.06
68141;BME280;54941;52.220;104.306;2023-02-04T07:22:58;96746.50;;;-9.07;59.20
68141;BME280;54941;52.220;104.306;2023-02-04T07:25:25;96740.66;;;-9.23;59.57
68141;BME280;54941;52.220;104.306;2023-02-04T07:27:51;96743.38;;;-9.27;59.33
68141;BME280;54941;52.220;104.306;2023-02-04T07:30:17;96744.53;;;-9.17;59.16
68141;BME280;54941;52.220;104.306;2023-02-04T07:32:45;96743.94;;;-9.22;59.21
68141;BME280;54941;52.220;104.306;2023-02-04T07:35:11;96735.53;;;-9.04;58.82
68141;BME280;54941;52.220;104.306;2023-02-04T07:37:38;96742.16;;;-9.03;58.83
68141;BME280;54941;52.220;104.306;2023-02-04T07:40:05;96735.94;;;-9.12;59.17
68141;BME280;54941;52.220;104.306;2023-02-04T07:42:31;96732.13;;;-9.19;59.90
68141;BME280;54941;52.220;104.306;2023-02-04T07:44:58;96738.13;;;-9.06;59.52
68141;BME280;54941;52.220;104.306;2023-02-04T07:47:24;96741.69;;;-8.94;59.45
68141;BME280;54941;52.220;104.306;2023-02-04T07:49:52;96739.16;;;-8.77;59.16
68141;BME280;54941;52.220;104.306;2023-02-04T07:52:18;96741.81;;;-9.13;59.83
68141;BME280;54941;52.220;104.306;2023-02-04T07:54:44;96742.59;;;-8.95;59.25
68141;BME280;54941;52.220;104.306;2023-02-04T07:57:11;96740.22;;;-8.65;59.29
68141;BME280;54941;52.220;104.306;2023-02-04T07:59:37;96736.91;;;-8.81;59.37
68141;BME280;54941;52.220;104.306;2023-02-04T08:02:03;96746.56;;;-8.75;59.71
68141;BME280;54941;52.220;104.306;2023-02-04T08:04:30;96748.31;;;-8.29;58.32
68141;BME280;54941;52.220;104.306;2023-02-04T08:06:58;96745.22;;;-8.34;57.73
68141;BME280;54941;52.220;104.306;2023-02-04T08:09:24;96748.03;;;-8.56;58.29
68141;BME280;54941;52.220;104.306;2023-02-04T08:11:51;96749.81;;;-8.42;58.21
68141;BME280;54941;52.220;104.306;2023-02-04T08:14:17;96743.69;;;-8.21;57.29
68141;BME280;54941;52.220;104.306;2023-02-04T08:16:44;96745.97;;;-8.48;58.51
68141;BME280;54941;52.220;104.306;2023-02-04T08:19:10;96750.97;;;-8.48;58.33
68141;BME280;54941;52.220;104.306;2023-02-04T08:21:36;96757.38;;;-8.59;58.54
68141;BME280;54941;52.220;104.306;2023-02-04T08:24:05;96753.84;;;-8.55;58.45
68141;BME280;54941;52.220;104.306;2023-02-04T08:26:31;96753.63;;;-8.51;58.41
68141;BME280;54941;52.220;104.306;2023-02-04T08:28:57;96760.38;;;-8.53;58.52
68141;BME280;54941;52.220;104.306;2023-02-04T08:31:24;96756.75;;;-8.63;58.77
68141;BME280;54941;52.220;104.306;2023-02-04T08:33:50;96755.44;;;-8.70;58.77
68141;BME280;54941;52.220;104.306;2023-02-04T08:36:16;96761.13;;;-8.51;58.72
68141;BME280;54941;52.220;104.306;2023-02-04T08:38:43;96751.03;;;-8.65;59.60
68141;BME280;54941;52.220;104.306;2023-02-04T08:41:10;96756.50;;;-8.58;59.38
68141;BME280;54941;52.220;104.306;2023-02-04T08:43:37;96754.31;;;-8.64;59.10
68141;BME280;54941;52.220;104.306;2023-02-04T08:46:03;96758.13;;;-8.57;59.20
68141;BME280;54941;52.220;104.306;2023-02-04T08:48:30;96755.94;;;-8.63;59.33
68141;BME280;54941;52.220;104.306;2023-02-04T08:50:56;96759.69;;;-8.72;59.61
68141;BME280;54941;52.220;104.306;2023-02-04T08:53:22;96761.06;;;-8.82;59.86
68141;BME280;54941;52.220;104.306;2023-02-04T08:55:49;96760.94;;;-8.96;60.91
68141;BME280;54941;52.220;104.306;2023-02-04T08:58:17;96776.50;;;-9.08;61.07
68141;BME280;54941;52.220;104.306;2023-02-04T09:00:43;96766.88;;;-9.31;63.29
68141;BME280;54941;52.220;104.306;2023-02-04T09:03:09;96770.97;;;-9.48;63.17
68141;BME280;54941;52.220;104.306;2023-02-04T09:05:36;96772.19;;;-9.56;64.01
68141;BME280;54941;52.220;104.306;2023-02-04T09:08:02;96767.06;;;-9.70;63.94
68141;BME280;54941;52.220;104.306;2023-02-04T09:10:29;96764.41;;;-9.84;64.36
68141;BME280;54941;52.220;104.306;2023-02-04T09:12:55;96757.31;;;-10.11;63.93
68141;BME280;54941;52.220;104.306;2023-02-04T09:15:23;96768.16;;;-10.29;64.69
68141;BME280;54941;52.220;104.306;2023-02-04T09:17:50;96773.34;;;-10.52;65.08
68141;BME280;54941;52.220;104.306;2023-02-04T09:20:17;96774.53;;;-10.79;66.27
68141;BME280;54941;52.220;104.306;2023-02-04T09:22:43;96775.13;;;-10.74;66.33
68141;BME280;54941;52.220;104.306;2023-02-04T09:25:10;96771.84;;;-10.75;66.34
68141;BME280;54941;52.220;104.306;2023-02-04T09:27:36;96770.44;;;-10.80;66.60
68141;BME280;54941;52.220;104.306;2023-02-04T09:30:03;96768.19;;;-11.05;67.06
68141;BME280;54941;52.220;104.306;2023-02-04T09:32:31;96767.72;;;-11.15;67.53
68141;BME280;54941;52.220;104.306;2023-02-04T09:34:58;96764.50;;;-11.17;67.49
68141;BME280;54941;52.220;104.306;2023-02-04T09:37:24;96765.31;;;-11.16;68.55
68141;BME280;54941;52.220;104.306;2023-02-04T09:39:51;96760.09;;;-11.30;68.71
68141;BME280;54941;52.220;104.306;2023-02-04T09:42:17;96765.88;;;-11.50;68.99
68141;BME280;54941;52.220;104.306;2023-02-04T09:44:44;96770.16;;;-11.74;69.23
68141;BME280;54941;52.220;104.306;2023-02-04T09:47:11;96770.84;;;-11.50;69.43
68141;BME280;54941;52.220;104.306;2023-02-04T09:49:40;96771.22;;;-11.59;68.77
68141;BME280;54941;52.220;104.306;2023-02-04T09:52:10;96770.22;;;-11.55;68.72
68141;BME280;54941;52.220;104.306;2023-02-04T09:54:37;96770.59;;;-11.64;69.46
68141;BME280;54941;52.220;104.306;2023-02-04T09:57:11;96775.38;;;-11.60;69.08
68141;BME280;54941;52.220;104.306;2023-02-04T09:59:39;96774.03;;;-11.47;69.09
68141;BME280;54941;52.220;104.306;2023-02-04T10:02:18;96778.53;;;-11.56;69.16
68141;BME280;54941;52.220;104.306;2023-02-04T10:04:47;96785.69;;;-11.69;69.44
68141;BME280;54941;52.220;104.306;2023-02-04T10:07:16;96790.84;;;-11.73;70.10
68141;BME280;54941;52.220;104.306;2023-02-04T10:09:44;96787.06;;;-11.62;70.12
68141;BME280;54941;52.220;104.306;2023-02-04T10:12:10;96787.81;;;-12.02;70.06
68141;BME280;54941;52.220;104.306;2023-02-04T10:14:36;96790.22;;;-12.00;71.30
68141;BME280;54941;52.220;104.306;2023-02-04T10:17:04;96793.00;;;-12.29;71.04
68141;BME280;54941;52.220;104.306;2023-02-04T10:19:30;96790.94;;;-12.87;72.73
68141;BME280;54941;52.220;104.306;2023-02-04T10:21:58;96799.63;;;-13.00;72.86
68141;BME280;54941;52.220;104.306;2023-02-04T10:24:25;96805.69;;;-12.83;73.42
68141;BME280;54941;52.220;104.306;2023-02-04T10:26:53;96803.38;;;-12.88;74.48
68141;BME280;54941;52.220;104.306;2023-02-04T10:29:21;96800.47;;;-12.76;75.12
68141;BME280;54941;52.220;104.306;2023-02-04T10:31:49;96795.13;;;-12.65;74.95
68141;BME280;54941;52.220;104.306;2023-02-04T10:34:17;96793.47;;;-12.65;73.82
68141;BME280;54941;52.220;104.306;2023-02-04T10:36:45;96796.25;;;-12.74;73.65
68141;BME280;54941;52.220;104.306;2023-02-04T10:39:16;96797.22;;;-12.78;73.86
68141;BME280;54941;52.220;104.306;2023-02-04T10:41:47;96799.72;;;-12.55;74.52
68141;BME280;54941;52.220;104.306;2023-02-04T10:44:15;96793.97;;;-12.78;74.58
68141;BME280;54941;52.220;104.306;2023-02-04T10:46:42;96800.59;;;-12.79;73.97
68141;BME280;54941;52.220;104.306;2023-02-04T10:49:20;96810.00;;;-12.89;73.63
68141;BME280;54941;52.220;104.306;2023-02-04T10:51:48;96810.59;;;-13.05;74.28
68141;BME280;54941;52.220;104.306;2023-02-04T10:54:17;96815.75;;;-13.11;73.61
68141;BME280;54941;52.220;104.306;2023-02-04T10:56:44;96815.94;;;-13.16;74.08
68141;BME280;54941;52.220;104.306;2023-02-04T10:59:18;96808.63;;;-13.20;74.78
68141;BME280;54941;52.220;104.306;2023-02-04T11:01:46;96826.13;;;-13.25;75.40
68141;BME280;54941;52.220;104.306;2023-02-04T11:04:12;96821.19;;;-13.25;75.89
68141;BME280;54941;52.220;104.306;2023-02-04T11:06:38;96820.88;;;-13.16;76.30
68141;BME280;54941;52.220;104.306;2023-02-04T11:09:05;96818.13;;;-13.33;76.51
68141;BME280;54941;52.220;104.306;2023-02-04T11:11:32;96817.13;;;-13.27;76.31
68141;BME280;54941;52.220;104.306;2023-02-04T11:14:00;96817.88;;;-13.25;75.98
68141;BME280;54941;52.220;104.306;2023-02-04T11:16:28;96828.97;;;-13.11;75.54
68141;BME280;54941;52.220;104.306;2023-02-04T11:18:57;96827.09;;;-13.04;75.89
68141;BME280;54941;52.220;104.306;2023-02-04T11:21:26;96830.09;;;-12.96;75.13
68141;BME280;54941;52.220;104.306;2023-02-04T11:24:03;96833.91;;;-12.86;75.84
68141;BME280;54941;52.220;104.306;2023-02-04T11:26:36;96830.75;;;-12.91;75.55
68141;BME280;54941;52.220;104.306;2023-02-04T11:29:28;96835.34;;;-12.80;74.45
68141;BME280;54941;52.220;104.306;2023-02-04T11:32:00;96838.50;;;-13.00;74.58
68141;BME280;54941;52.220;104.306;2023-02-04T11:34:30;96840.09;;;-12.98;75.08
68141;BME280;54941;52.220;104.306;2023-02-04T11:39:52;96846.75;;;-13.00;75.30
68141;BME280;54941;52.220;104.306;2023-02-04T11:42:22;96845.47;;;-13.10;75.09
68141;BME280;54941;52.220;104.306;2023-02-04T11:44:50;96851.97;;;-13.32;75.38
68141;BME280;54941;52.220;104.306;2023-02-04T11:47:17;96851.59;;;-13.46;76.36
68141;BME280;54941;52.220;104.306;2023-02-04T11:49:46;96856.81;;;-13.54;75.85
68141;BME280;54941;52.220;104.306;2023-02-04T11:52:17;96859.47;;;-13.60;76.73
68141;BME280;54941;52.220;104.306;2023-02-04T11:54:52;96853.53;;;-13.56;76.45
68141;BME280;54941;52.220;104.306;2023-02-04T11:57:20;96854.56;;;-13.61;77.00
68141;BME280;54941;52.220;104.306;2023-02-04T11:59:46;96855.16;;;-13.55;77.19
68141;BME280;54941;52.220;104.306;2023-02-04T12:02:15;96859.16;;;-13.49;76.82
68141;BME280;54941;52.220;104.306;2023-02-04T12:04:50;96864.94;;;-13.50;77.17
68141;BME280;54941;52.220;104.306;2023-02-04T12:07:22;96868.72;;;-13.39;77.06
68141;BME280;54941;52.220;104.306;2023-02-04T12:09:49;96873.94;;;-13.21;76.66
68141;BME280;54941;52.220;104.306;2023-02-04T12:12:24;96871.91;;;-13.35;77.35
68141;BME280;54941;52.220;104.306;2023-02-04T12:15:08;96870.81;;;-13.26;77.06
68141;BME280;54941;52.220;104.306;2023-02-04T12:17:38;96875.25;;;-12.87;77.17
68141;BME280;54941;52.220;104.306;2023-02-04T12:20:05;96877.88;;;-12.91;75.89
68141;BME280;54941;52.220;104.306;2023-02-04T12:22:32;96884.84;;;-13.02;76.23
68141;BME280;54941;52.220;104.306;2023-02-04T12:24:58;96889.09;;;-13.06;76.65
68141;BME280;54941;52.220;104.306;2023-02-04T12:27:26;96887.16;;;-13.21;76.11
68141;BME280;54941;52.220;104.306;2023-02-04T12:29:52;96881.56;;;-13.54;76.33
68141;BME280;54941;52.220;104.306;2023-02-04T12:32:18;96890.31;;;-13.70;77.23
68141;BME280;54941;52.220;104.306;2023-02-04T12:34:45;96875.06;;;-13.84;77.62
68141;BME280;54941;52.220;104.306;2023-02-04T12:37:11;96887.25;;;-13.78;77.46